»·PEaware :: SWA1672 KELP-KLAS

SWA1672 :: KELP-KLAS

FLIGHT INFORMATION

Flight Status: Arrived
Operator:
Southwest Airlines
More flights by this operator :: More flights under this callsign
Pilot: Chuck O. (4337)
Aircraft: BOEING 737-700
(B737)
More flights by this aircraft type
Origin: KELP El Paso Intl
United States
Destination: KLAS McCarran Intl
United States
More flights between these airports :: More routes between these airports
Route: +ATKNN5 GREBE J86 INW BAVPE J86 PGS TYSSN5
File this flight plan on PilotEdge
Remarks:
Altitude:
(Current/Filed)
380ft
Speed:
(Current/Filed)
447kts
Departed: 23-May-20 04:25 PM
Arrived: 23-May-20 06:02 PM
Distance/Time
Traveled:
506nm/1:37
Distance/Time
To Go:
Arrived

Flight Plot

Page will automatically refresh every two minutes.


Map Options




Map Legend


Flown Route
Filed Route
Departure Airport
Arrival Airport
Navaid (VOR, NDB)
Fix

Horizontal Profiles

Position Reports

Time Latitude Longitude Heading Altitude Ground
Speed
23-May-20 15:52 31.800085 -106.393283 262 3966ft 0kts
23-May-20 15:53 31.800085 -106.393283 262 3966ft 0kts
23-May-20 15:54 31.800085 -106.393283 262 3966ft 0kts
23-May-20 15:55 31.800085 -106.393283 262 3966ft 0kts
23-May-20 15:56 31.800085 -106.393283 262 3966ft 0kts
23-May-20 15:57 31.800085 -106.393283 262 3966ft 0kts
23-May-20 15:58 31.800085 -106.393283 262 3966ft 0kts
23-May-20 15:59 31.800085 -106.393283 262 3966ft 0kts
23-May-20 16:00 31.800085 -106.393283 262 3966ft 0kts
23-May-20 16:01 31.800085 -106.393283 262 3966ft 0kts
23-May-20 16:02 31.800085 -106.393283 262 3966ft 0kts
23-May-20 16:03 31.800085 -106.393283 262 3966ft 0kts
23-May-20 16:04 31.800085 -106.393283 262 3966ft 0kts
23-May-20 16:05 31.800085 -106.393283 262 3966ft 0kts
23-May-20 16:06 31.800085 -106.393283 262 3966ft 0kts
23-May-20 16:07 31.800061 -106.392763 309 3966ft 2kts
23-May-20 16:08 31.799816 -106.392756 23 3966ft 0kts
23-May-20 16:09 31.799816 -106.392756 23 3966ft 0kts
23-May-20 16:10 31.799816 -106.392756 23 3966ft 0kts
23-May-20 16:11 31.799816 -106.392756 23 3966ft 0kts
23-May-20 16:12 31.799817 -106.392756 23 3966ft 0kts
23-May-20 16:13 31.801070 -106.392536 357 3966ft 14kts
23-May-20 16:14 31.803969 -106.391212 41 3966ft 8kts
23-May-20 16:15 31.806730 -106.388318 45 3966ft 15kts
23-May-20 16:16 31.809263 -106.385156 48 3966ft 12kts
23-May-20 16:17 31.811258 -106.382382 48 3966ft 10kts
23-May-20 16:18 31.813579 -106.379262 50 3966ft 18kts
23-May-20 16:19 31.816586 -106.375162 49 3966ft 14kts
23-May-20 16:20 31.818962 -106.371960 49 3966ft 11kts
23-May-20 16:21 31.820949 -106.369274 49 3966ft 9kts
23-May-20 16:22 31.822295 -106.369425 290 3966ft 0kts
23-May-20 16:23 31.821800 -106.371587 231 3966ft 19kts
23-May-20 16:24 31.799600 -106.401129 232 4823ft 165kts
23-May-20 16:25 31.777478 -106.454250 239 6746ft 223kts
23-May-20 16:26 31.767417 -106.533160 301 9348ft 287kts
23-May-20 16:27 31.836623 -106.589956 346 11829ft 351kts
23-May-20 16:28 31.938422 -106.607665 348 14739ft 379kts
23-May-20 16:29 32.042890 -106.635415 327 17132ft 389kts
23-May-20 16:30 32.121012 -106.721476 312 20186ft 392kts
23-May-20 16:31 32.202867 -106.810406 313 22817ft 407kts
23-May-20 16:32 32.287315 -106.902947 312 25092ft 419kts
23-May-20 16:33 32.365636 -107.006936 308 27102ft 428kts
23-May-20 16:34 32.409756 -107.066616 309 28088ft 434kts
23-May-20 16:35 32.490196 -107.174871 309 29725ft 442kts
23-May-20 16:36 32.571516 -107.283499 309 31842ft 434kts
23-May-20 16:37 32.650547 -107.389683 309 33779ft 425kts
23-May-20 16:38 32.728259 -107.494540 308 35403ft 419kts
23-May-20 16:39 32.804752 -107.598072 308 36845ft 413kts
23-May-20 16:40 32.879990 -107.700197 308 37946ft 412kts
23-May-20 16:41 32.955119 -107.802468 307 37968ft 406kts
23-May-20 16:42 33.029683 -107.903928 307 37971ft 405kts
23-May-20 16:43 33.103543 -108.005054 307 37973ft 404kts
23-May-20 16:44 33.177135 -108.106321 307 37973ft 402kts
23-May-20 16:45 33.250645 -108.207113 307 37971ft 402kts
23-May-20 16:46 33.324318 -108.307818 307 37976ft 402kts
23-May-20 16:47 33.397798 -108.408653 307 37968ft 402kts
23-May-20 16:48 33.471407 -108.509431 307 37961ft 402kts
23-May-20 16:49 33.545095 -108.610391 307 37955ft 402kts
23-May-20 16:50 33.618503 -108.711580 306 37968ft 402kts
23-May-20 16:51 33.691767 -108.812915 306 37966ft 402kts
23-May-20 16:52 33.764932 -108.914414 306 37966ft 402kts
23-May-20 16:53 33.838194 -109.016338 306 37967ft 402kts
23-May-20 16:54 33.911199 -109.118202 306 37969ft 402kts
23-May-20 16:55 33.984216 -109.219961 306 37972ft 401kts
23-May-20 16:56 34.056718 -109.321831 305 37974ft 401kts
23-May-20 16:57 34.129411 -109.424384 305 37991ft 400kts
23-May-20 16:58 34.199165 -109.528563 301 38011ft 398kts
23-May-20 16:59 34.266390 -109.635501 302 38022ft 399kts
23-May-20 17:00 34.338115 -109.738359 304 38037ft 400kts
23-May-20 17:01 34.409843 -109.841556 304 38045ft 400kts
23-May-20 17:02 34.481153 -109.944774 304 38037ft 400kts
23-May-20 17:03 34.552959 -110.048073 304 38041ft 400kts
23-May-20 17:04 34.624351 -110.151706 304 38036ft 400kts
23-May-20 17:05 34.695847 -110.255445 304 38026ft 399kts
23-May-20 17:06 34.766899 -110.359421 303 38011ft 399kts
23-May-20 17:07 34.837536 -110.463233 303 37992ft 398kts
23-May-20 17:08 34.908343 -110.567119 303 37974ft 399kts
23-May-20 17:09 34.978983 -110.671658 303 37962ft 398kts
23-May-20 17:10 35.049498 -110.776374 303 37960ft 398kts
23-May-20 17:11 35.108336 -110.888704 295 37965ft 393kts
23-May-20 17:12 35.164558 -111.003634 295 37981ft 393kts
23-May-20 17:13 35.220412 -111.118008 295 38002ft 393kts
23-May-20 17:14 35.276924 -111.232828 295 38025ft 393kts
23-May-20 17:15 35.333015 -111.347639 295 38041ft 393kts
23-May-20 17:16 35.389056 -111.462995 295 38049ft 393kts
23-May-20 17:17 35.444947 -111.577897 295 38047ft 393kts
23-May-20 17:19 35.500573 -111.693263 295 38049ft 393kts
23-May-20 17:20 35.556025 -111.809002 295 38054ft 393kts
23-May-20 17:21 35.589969 -111.933080 273 38054ft 384kts
23-May-20 17:22 35.595976 -112.063981 270 38054ft 383kts
23-May-20 17:23 35.599828 -112.194822 270 38057ft 383kts
23-May-20 17:24 35.603434 -112.325894 270 38053ft 383kts
23-May-20 17:25 35.606567 -112.456805 270 38051ft 383kts
23-May-20 17:26 35.609075 -112.587790 270 37470ft 383kts
23-May-20 17:27 35.611444 -112.718976 270 36471ft 382kts
23-May-20 17:28 35.613989 -112.847431 270 35163ft 367kts
23-May-20 17:29 35.616436 -112.969866 270 33444ft 350kts
23-May-20 17:30 35.618444 -113.087621 270 31775ft 338kts
23-May-20 17:31 35.620543 -113.201418 270 30186ft 329kts
23-May-20 17:32 35.622166 -113.312671 270 28565ft 320kts
23-May-20 17:33 35.623513 -113.421079 270 26930ft 320kts
23-May-20 17:34 35.624998 -113.534040 272 25201ft 331kts
23-May-20 17:35 35.639466 -113.644174 279 23986ft 317kts
23-May-20 17:35 35.651435 -113.728399 278 23930ft 279kts
23-May-20 17:37 35.667406 -113.842775 278 20887ft 317kts
23-May-20 17:38 35.682125 -113.948323 278 19180ft 309kts
23-May-20 17:38 35.694440 -114.034337 278 17746ft 302kts
23-May-20 17:39 35.708565 -114.135557 278 15929ft 298kts
23-May-20 17:41 35.724528 -114.252295 278 14031ft 293kts
23-May-20 17:41 35.735662 -114.333995 279 12777ft 290kts
23-May-20 17:42 35.784458 -114.404943 337 11748ft 293kts
23-May-20 17:43 35.861334 -114.439069 337 11220ft 293kts
23-May-20 17:44 35.937231 -114.474552 337 10709ft 291kts
23-May-20 17:45 36.011206 -114.509306 336 10209ft 266kts
23-May-20 17:46 36.068698 -114.556303 331 9381ft 243kts
23-May-20 17:47 36.127731 -114.595976 331 8126ft 239kts
23-May-20 17:48 36.185751 -114.635268 331 8044ft 237kts
23-May-20 17:49 36.244112 -114.674905 331 8035ft 239kts
23-May-20 17:50 36.301944 -114.714294 331 8010ft 230kts
23-May-20 17:51 36.356449 -114.751551 331 8023ft 220kts
23-May-20 17:52 36.384941 -114.813742 262 7927ft 240kts
23-May-20 17:53 36.356044 -114.870345 234 7477ft 201kts
23-May-20 17:54 36.324540 -114.921619 235 6400ft 179kts
23-May-20 17:55 36.294509 -114.970278 235 6016ft 178kts
23-May-20 17:56 36.262068 -115.016752 220 5885ft 182kts
23-May-20 17:57 36.220189 -115.050867 217 5135ft 178kts
23-May-20 17:58 36.180820 -115.084980 217 4286ft 169kts
23-May-20 17:59 36.142965 -115.117232 217 3375ft 159kts
23-May-20 18:00 36.107772 -115.147183 215 2506ft 148kts
23-May-20 18:01 36.083617 -115.161234 160 2189ft 2kts
23-May-20 18:02 36.082911 -115.161164 181 2189ft 2kts
23-May-20 18:03 36.082857 -115.161166 182 2189ft 0kts
23-May-20 18:04 36.081672 -115.160390 104 2189ft 6kts
23-May-20 18:05 36.081590 -115.158351 91 2189ft 5kts
23-May-20 18:06 36.081685 -115.156585 87 2189ft 4kts
23-May-20 18:07 36.081621 -115.155078 93 2189ft 3kts
23-May-20 18:08 36.081369 -115.153143 104 2189ft 10kts
23-May-20 18:09 36.081014 -115.149749 90 2189ft 9kts
23-May-20 18:10 36.081309 -115.147962 65 2189ft 0kts
23-May-20 18:11 36.081309 -115.147962 65 2189ft 0kts
23-May-20 18:12 36.081309 -115.147962 65 2189ft 0kts
23-May-20 18:13 36.081309 -115.147962 65 2189ft 0kts
23-May-20 18:14 36.081309 -115.147962 65 2189ft 0kts
23-May-20 18:15 36.081309 -115.147962 65 2189ft 0kts

Navigation Log

Ident Type
Flight plan parsing failed, navigation log unavailable